createdAt,value
2024-01-27T00:00:18.208Z,72.66
2024-01-27T00:01:18.218Z,72.09
2024-01-27T00:02:18.122Z,72.29
2024-01-27T00:03:18.247Z,71.87
2024-01-27T00:04:18.213Z,71.52
2024-01-27T00:05:18.294Z,71.90
2024-01-27T00:06:18.305Z,72.14
2024-01-27T00:07:18.341Z,72.36
2024-01-27T00:08:18.196Z,72.30
2024-01-27T00:09:18.279Z,71.86
2024-01-27T00:10:18.242Z,71.51
2024-01-27T00:11:18.275Z,71.41
2024-01-27T00:12:18.341Z,70.00
2024-01-27T00:13:18.261Z,67.08
2024-01-27T00:14:18.278Z,67.64
2024-01-27T00:15:18.258Z,69.48
2024-01-27T00:16:18.240Z,68.76
2024-01-27T00:17:18.208Z,68.58
2024-01-27T00:18:18.307Z,68.04
2024-01-27T00:19:18.409Z,69.02
2024-01-27T00:20:18.383Z,68.07
2024-01-27T00:21:18.257Z,69.49
2024-01-27T00:22:18.304Z,69.51
2024-01-27T00:23:18.257Z,69.73
2024-01-27T00:24:18.299Z,69.51
2024-01-27T00:25:18.290Z,69.61
2024-01-27T00:26:18.329Z,70.86
2024-01-27T00:27:18.397Z,70.81
2024-01-27T00:28:18.402Z,71.25
2024-01-27T00:29:18.453Z,72.80
2024-01-27T00:30:18.596Z,71.86
2024-01-27T00:31:18.525Z,71.88
2024-01-27T00:32:18.592Z,71.97
2024-01-27T00:33:18.650Z,71.37
2024-01-27T00:34:18.614Z,72.18
2024-01-27T00:35:18.590Z,73.70
2024-01-27T00:36:18.659Z,73.41
2024-01-27T00:37:18.687Z,73.08
2024-01-27T00:38:18.692Z,72.78
2024-01-27T00:39:18.745Z,72.75
2024-01-27T00:40:18.763Z,72.72
2024-01-27T00:41:18.788Z,72.18
2024-01-27T00:42:18.828Z,71.72
2024-01-27T00:43:18.781Z,70.17
2024-01-27T00:44:18.760Z,70.25
2024-01-27T00:45:18.771Z,71.07
2024-01-27T00:46:18.831Z,72.34
2024-01-27T00:47:18.833Z,72.26
2024-01-27T00:48:19.050Z,72.32
2024-01-27T00:49:18.983Z,73.27
2024-01-27T00:50:18.886Z,73.45
2024-01-27T00:51:18.908Z,73.17
2024-01-27T00:52:18.894Z,73.95
2024-01-27T00:53:18.896Z,73.87
2024-01-27T00:54:19.016Z,74.99
2024-01-27T00:55:18.938Z,74.88
2024-01-27T00:56:18.949Z,74.82
2024-01-27T00:57:19.010Z,74.55
2024-01-27T00:58:18.969Z,74.24
2024-01-27T00:59:19.034Z,74.46
2024-01-27T01:00:19.066Z,73.41
2024-01-27T01:01:19.061Z,74.35
2024-01-27T01:02:19.020Z,74.26
2024-01-27T01:03:19.342Z,74.02
2024-01-27T01:04:19.171Z,73.75
2024-01-27T01:05:19.196Z,73.45
2024-01-27T01:06:19.460Z,73.10
2024-01-27T01:07:19.246Z,72.96
2024-01-27T01:08:19.239Z,73.10
2024-01-27T01:09:19.303Z,73.35
2024-01-27T01:10:19.287Z,73.75
2024-01-27T01:11:19.285Z,74.25
2024-01-27T01:12:19.398Z,74.28
2024-01-27T01:13:19.285Z,73.86
2024-01-27T01:14:19.332Z,74.71
2024-01-27T01:15:19.323Z,74.11
2024-01-27T01:16:19.257Z,74.61
2024-01-27T01:17:19.265Z,74.90
2024-01-27T01:18:19.356Z,74.92
2024-01-27T01:19:19.311Z,74.92
2024-01-27T01:20:19.286Z,74.81
2024-01-27T01:21:19.337Z,75.04
2024-01-27T01:22:19.300Z,75.31
2024-01-27T01:23:19.298Z,75.21
2024-01-27T01:24:19.354Z,75.16
2024-01-27T01:25:19.322Z,75.21
2024-01-27T01:26:19.381Z,75.47
2024-01-27T01:27:19.444Z,75.48
2024-01-27T01:28:19.511Z,75.40
2024-01-27T01:29:19.496Z,75.37
2024-01-27T01:30:19.623Z,75.53
2024-01-27T01:31:19.566Z,75.42
2024-01-27T01:32:19.582Z,75.60
2024-01-27T01:33:19.884Z,75.47
2024-01-27T01:34:19.837Z,75.44
2024-01-27T01:35:19.731Z,75.15
2024-01-27T01:36:19.838Z,74.76
2024-01-27T01:37:19.814Z,74.88
2024-01-27T01:38:19.888Z,74.52
2024-01-27T01:39:19.990Z,74.30
2024-01-27T01:40:19.939Z,73.61
2024-01-27T01:41:19.946Z,73.18
2024-01-27T01:42:19.978Z,73.72
2024-01-27T01:43:19.966Z,73.04
2024-01-27T01:44:19.966Z,72.81
2024-01-27T01:45:20.078Z,72.37
2024-01-27T01:46:20.038Z,72.48
2024-01-27T01:47:20.092Z,72.01
2024-01-27T01:48:20.292Z,71.92
2024-01-27T01:49:20.244Z,71.68
2024-01-27T01:50:20.204Z,71.39
2024-01-27T01:51:20.212Z,71.44
2024-01-27T01:52:20.134Z,71.39
2024-01-27T01:53:20.147Z,71.88
2024-01-27T01:54:20.202Z,71.41
2024-01-27T01:55:20.221Z,71.55
2024-01-27T01:56:20.267Z,71.50
2024-01-27T01:57:20.425Z,72.34
2024-01-27T01:58:20.363Z,72.31
2024-01-27T01:59:20.397Z,72.39
2024-01-27T02:00:20.686Z,72.00
2024-01-27T02:01:20.641Z,73.17
2024-01-27T02:02:20.486Z,73.32
2024-01-27T02:03:20.561Z,73.49
2024-01-27T02:04:20.618Z,73.50
2024-01-27T02:05:20.644Z,73.52
2024-01-27T02:06:20.715Z,73.96
2024-01-27T02:07:20.668Z,74.28
2024-01-27T02:08:20.673Z,74.15
2024-01-27T02:09:20.787Z,73.94
2024-01-27T02:10:20.697Z,72.69
2024-01-27T02:11:20.752Z,73.08
2024-01-27T02:12:20.825Z,72.82
2024-01-27T02:13:20.806Z,72.45
2024-01-27T02:14:20.845Z,72.40
2024-01-27T02:15:20.878Z,71.52
2024-01-27T02:16:20.879Z,71.85
2024-01-27T02:17:20.927Z,71.71
2024-01-27T02:18:21.004Z,71.85
2024-01-27T02:19:21.023Z,71.96
2024-01-27T02:20:20.985Z,72.13
2024-01-27T02:21:21.066Z,72.22
2024-01-27T02:22:21.009Z,71.35
2024-01-27T02:23:21.036Z,71.38
2024-01-27T02:24:21.109Z,70.87
2024-01-27T02:25:21.136Z,71.26
2024-01-27T02:26:21.200Z,71.70
2024-01-27T02:27:21.309Z,71.68
2024-01-27T02:28:21.244Z,72.10
2024-01-27T02:29:21.255Z,72.50
2024-01-27T02:30:21.331Z,72.66
2024-01-27T02:31:21.347Z,72.57
2024-01-27T02:32:21.379Z,72.88
2024-01-27T02:33:21.458Z,72.88
2024-01-27T02:34:21.582Z,72.93
2024-01-27T02:35:21.492Z,72.87
2024-01-27T02:36:21.581Z,73.27
2024-01-27T02:37:21.537Z,73.47
2024-01-27T02:38:21.567Z,73.04
2024-01-27T02:39:21.606Z,72.85
2024-01-27T02:40:21.656Z,73.03
2024-01-27T02:41:21.645Z,72.65
2024-01-27T02:42:21.685Z,72.91
2024-01-27T02:43:21.704Z,72.98
2024-01-27T02:44:21.702Z,73.50
2024-01-27T02:45:21.726Z,73.90
2024-01-27T02:46:21.794Z,73.93
2024-01-27T02:47:21.780Z,74.18
2024-01-27T02:48:21.927Z,74.22
2024-01-27T02:49:22.012Z,74.01
2024-01-27T02:50:21.844Z,74.66
2024-01-27T02:51:22.013Z,74.51
2024-01-27T02:52:21.913Z,73.69
2024-01-27T02:53:21.958Z,74.89
2024-01-27T02:54:22.031Z,73.46
2024-01-27T02:55:21.992Z,72.71
2024-01-27T02:56:22.031Z,73.09
2024-01-27T02:57:22.028Z,72.97
2024-01-27T02:58:22.914Z,72.88
2024-01-27T02:59:22.032Z,72.82
2024-01-27T03:00:21.976Z,72.37
2024-01-27T03:01:22.136Z,72.23
2024-01-27T03:02:21.971Z,72.33
2024-01-27T03:03:22.010Z,71.88
2024-01-27T03:04:22.011Z,71.68
2024-01-27T03:05:21.992Z,71.71
2024-01-27T03:06:22.016Z,71.79
2024-01-27T03:07:21.975Z,71.77
2024-01-27T03:08:22.036Z,72.25
2024-01-27T03:09:22.050Z,72.33
2024-01-27T03:10:22.018Z,72.45
2024-01-27T03:11:21.989Z,72.32
2024-01-27T03:12:22.053Z,73.09
2024-01-27T03:13:22.042Z,73.69
2024-01-27T03:14:22.074Z,73.46
2024-01-27T03:15:24.053Z,73.57
2024-01-27T03:16:22.124Z,73.87
2024-01-27T03:17:22.151Z,73.75
2024-01-27T03:18:22.245Z,73.69
2024-01-27T03:19:22.278Z,73.49
2024-01-27T03:20:22.262Z,73.37
2024-01-27T03:21:22.349Z,73.05
2024-01-27T03:22:22.323Z,72.31
2024-01-27T03:23:22.312Z,71.72
2024-01-27T03:24:22.352Z,71.60
2024-01-27T03:25:22.314Z,72.05
2024-01-27T03:26:22.317Z,72.11
2024-01-27T03:27:22.308Z,72.01
2024-01-27T03:28:22.366Z,71.71
2024-01-27T03:29:22.360Z,71.45
2024-01-27T03:30:22.415Z,70.75
2024-01-27T03:31:22.404Z,70.88
2024-01-27T03:32:22.408Z,70.55
2024-01-27T03:33:22.532Z,70.86
2024-01-27T03:34:22.577Z,71.08
2024-01-27T03:35:22.553Z,71.47
2024-01-27T03:36:22.576Z,71.59
2024-01-27T03:37:22.544Z,71.59
2024-01-27T03:38:22.594Z,71.34
2024-01-27T03:39:22.649Z,71.12
2024-01-27T03:40:22.670Z,70.99
2024-01-27T03:41:22.746Z,70.81
2024-01-27T03:42:22.807Z,71.14
2024-01-27T03:43:22.736Z,70.86
2024-01-27T03:44:22.779Z,70.70
2024-01-27T03:45:22.854Z,70.68
2024-01-27T03:46:22.798Z,70.79
2024-01-27T03:47:22.835Z,70.60
2024-01-27T03:48:22.971Z,70.82
2024-01-27T03:49:22.937Z,70.79
2024-01-27T03:50:22.841Z,71.10
2024-01-27T03:51:22.891Z,70.80
2024-01-27T03:52:22.856Z,71.00
2024-01-27T03:53:22.859Z,70.38
2024-01-27T03:54:22.957Z,70.23
2024-01-27T03:55:22.875Z,70.31
2024-01-27T03:56:22.846Z,70.53
2024-01-27T03:57:22.914Z,70.73
2024-01-27T03:58:22.859Z,70.20
2024-01-27T03:59:22.977Z,70.34
2024-01-27T04:00:23.009Z,70.26
2024-01-27T04:01:23.045Z,70.27
2024-01-27T04:02:23.054Z,70.48
2024-01-27T04:03:23.148Z,70.41
2024-01-27T04:04:23.225Z,70.37
2024-01-27T04:05:23.130Z,70.51
2024-01-27T04:06:23.251Z,70.36
2024-01-27T04:07:23.249Z,70.23
2024-01-27T04:08:23.324Z,70.33
2024-01-27T04:09:23.410Z,70.10
2024-01-27T04:10:23.417Z,70.03
2024-01-27T04:11:23.490Z,70.37
2024-01-27T04:12:23.441Z,70.21
2024-01-27T04:13:23.473Z,70.29
2024-01-27T04:14:23.637Z,70.35
2024-01-27T04:15:23.531Z,70.25
2024-01-27T04:16:23.556Z,70.18
2024-01-27T04:17:23.540Z,69.74
2024-01-27T04:18:23.675Z,69.48
2024-01-27T04:19:23.657Z,69.76
2024-01-27T04:20:23.597Z,69.77
2024-01-27T04:21:23.685Z,70.22
2024-01-27T04:22:23.568Z,70.60
2024-01-27T04:23:23.650Z,70.35
2024-01-27T04:24:23.769Z,70.11
2024-01-27T04:25:23.696Z,69.69
2024-01-27T04:26:24.527Z,69.37
2024-01-27T04:27:23.921Z,69.25
2024-01-27T04:28:23.863Z,69.14
2024-01-27T04:29:23.895Z,69.32
2024-01-27T04:30:23.952Z,70.12
2024-01-27T04:31:23.879Z,70.32
2024-01-27T04:32:23.992Z,70.58
2024-01-27T04:33:24.089Z,70.73
2024-01-27T04:34:24.039Z,70.21
2024-01-27T04:35:23.926Z,69.85
2024-01-27T04:36:23.982Z,69.50
2024-01-27T04:37:24.057Z,69.32
2024-01-27T04:38:24.088Z,69.25
2024-01-27T04:39:24.211Z,69.26
2024-01-27T04:40:24.161Z,69.28
2024-01-27T04:41:24.193Z,69.19
2024-01-27T04:42:24.298Z,69.14
2024-01-27T04:43:24.306Z,69.04
2024-01-27T04:44:36.644Z,69.05
2024-01-27T04:45:36.663Z,68.71
2024-01-27T04:46:36.643Z,68.38
2024-01-27T04:47:36.704Z,68.32
2024-01-27T04:48:36.779Z,68.23
2024-01-27T04:49:36.927Z,68.07
2024-01-27T04:50:36.665Z,67.91
2024-01-27T04:51:36.734Z,67.67
2024-01-27T04:52:36.711Z,67.61
2024-01-27T04:53:36.672Z,67.58
2024-01-27T04:54:36.726Z,67.36
2024-01-27T04:55:36.674Z,67.14
2024-01-27T04:56:36.713Z,67.25
2024-01-27T04:57:36.745Z,67.31
2024-01-27T04:58:36.659Z,67.43
2024-01-27T04:59:36.709Z,67.45
2024-01-27T05:00:36.790Z,67.29
2024-01-27T05:01:36.751Z,67.51
2024-01-27T05:02:36.760Z,67.57
2024-01-27T05:03:36.916Z,67.45
2024-01-27T05:04:37.828Z,67.66
2024-01-27T05:05:37.163Z,67.99
2024-01-27T05:06:37.085Z,68.70
2024-01-27T05:07:36.997Z,69.02
2024-01-27T05:08:37.080Z,69.24
2024-01-27T05:09:37.240Z,69.14
2024-01-27T05:10:37.241Z,68.88
2024-01-27T05:11:37.286Z,68.42
2024-01-27T05:12:37.477Z,68.26
2024-01-27T05:13:37.437Z,68.09
2024-01-27T05:14:37.502Z,67.90
2024-01-27T05:15:37.631Z,67.53
2024-01-27T05:16:37.611Z,67.28
2024-01-27T05:17:37.716Z,67.00
2024-01-27T05:18:37.820Z,66.95
2024-01-27T05:19:37.836Z,67.10
2024-01-27T05:20:37.907Z,67.16
2024-01-27T05:21:37.918Z,67.25
2024-01-27T05:22:37.970Z,67.26
2024-01-27T05:23:38.032Z,67.23
2024-01-27T05:24:38.090Z,67.74
2024-01-27T05:25:38.093Z,68.13
2024-01-27T05:26:38.150Z,68.58
2024-01-27T05:27:38.246Z,68.55
2024-01-27T05:28:38.254Z,68.27
2024-01-27T05:29:38.300Z,68.45
2024-01-27T05:30:38.426Z,68.20
2024-01-27T05:31:38.393Z,68.46
2024-01-27T05:32:38.522Z,68.48
2024-01-27T05:33:38.643Z,68.97
2024-01-27T05:34:38.711Z,70.13
2024-01-27T05:35:38.594Z,70.44
2024-01-27T05:36:38.588Z,70.90
2024-01-27T05:37:38.619Z,71.33
2024-01-27T05:38:38.692Z,71.04
2024-01-27T05:39:38.767Z,70.65
2024-01-27T05:40:41.769Z,70.21
2024-01-27T05:41:38.746Z,69.89
2024-01-27T05:42:38.787Z,69.56
2024-01-27T05:43:38.766Z,69.07
2024-01-27T05:44:38.829Z,69.42
2024-01-27T05:45:38.886Z,70.81
2024-01-27T05:46:40.427Z,70.96
2024-01-27T05:47:38.926Z,71.41
2024-01-27T05:48:39.015Z,72.22
2024-01-27T05:49:39.099Z,72.43
2024-01-27T05:50:38.922Z,72.36
2024-01-27T05:51:38.950Z,72.05
2024-01-27T05:52:38.951Z,72.04
2024-01-27T05:53:38.999Z,72.02
2024-01-27T05:54:39.078Z,71.49
2024-01-27T05:55:38.987Z,70.97
2024-01-27T05:56:38.953Z,70.51
2024-01-27T05:57:38.998Z,69.96
2024-01-27T05:58:38.996Z,69.71
2024-01-27T05:59:39.011Z,69.40
2024-01-27T06:00:39.166Z,69.14
2024-01-27T06:01:39.039Z,69.02
2024-01-27T06:02:38.984Z,68.82
2024-01-27T06:03:39.104Z,68.73
2024-01-27T06:04:39.053Z,68.80
2024-01-27T06:05:39.041Z,68.68
2024-01-27T06:06:39.117Z,68.67
2024-01-27T06:07:39.061Z,68.26
2024-01-27T06:08:39.124Z,68.12
2024-01-27T06:09:39.301Z,68.12
2024-01-27T06:10:39.240Z,68.07
2024-01-27T06:11:39.282Z,68.68
2024-01-27T06:12:39.344Z,68.95
2024-01-27T06:13:39.520Z,68.65
2024-01-27T06:14:39.343Z,69.13
2024-01-27T06:15:39.374Z,69.27
2024-01-27T06:16:39.343Z,69.17
2024-01-27T06:17:39.444Z,68.85
2024-01-27T06:18:39.520Z,68.53
2024-01-27T06:19:39.536Z,68.38
2024-01-27T06:20:39.398Z,68.15
2024-01-27T06:21:39.441Z,68.04
2024-01-27T06:22:39.390Z,68.05
2024-01-27T06:23:39.368Z,67.74
2024-01-27T06:24:39.424Z,67.49
2024-01-27T06:25:39.411Z,67.28
2024-01-27T06:26:39.403Z,67.30
2024-01-27T06:27:39.428Z,67.09
2024-01-27T06:28:39.461Z,66.79
2024-01-27T06:29:39.470Z,66.68
2024-01-27T06:30:39.517Z,66.74
2024-01-27T06:31:39.445Z,66.69
2024-01-27T06:32:39.532Z,66.56
2024-01-27T06:33:39.646Z,66.38
2024-01-27T06:34:39.522Z,66.45
2024-01-27T06:35:39.498Z,66.42
2024-01-27T06:36:39.501Z,66.40
2024-01-27T06:37:39.459Z,66.27
2024-01-27T06:38:39.439Z,66.48
2024-01-27T06:39:39.596Z,66.76
2024-01-27T06:40:39.457Z,67.19
2024-01-27T06:41:39.498Z,67.57
2024-01-27T06:42:39.603Z,67.62
2024-01-27T06:43:39.534Z,67.61
2024-01-27T06:44:39.534Z,67.54
2024-01-27T06:45:39.621Z,67.43
2024-01-27T06:46:39.565Z,67.33
2024-01-27T06:47:39.542Z,67.33
2024-01-27T06:48:39.761Z,67.41
2024-01-27T06:49:39.634Z,67.45
2024-01-27T06:50:39.590Z,67.47
2024-01-27T06:51:39.597Z,67.30
2024-01-27T06:52:39.598Z,67.17
2024-01-27T06:53:39.639Z,67.19
2024-01-27T06:54:39.742Z,67.22
2024-01-27T06:55:43.473Z,67.26
2024-01-27T06:56:40.343Z,67.26
2024-01-27T06:57:39.845Z,67.27
2024-01-27T06:58:39.774Z,67.17
2024-01-27T06:59:39.834Z,67.28
2024-01-27T07:00:39.890Z,67.56
2024-01-27T07:01:39.884Z,67.61
2024-01-27T07:02:39.829Z,67.82
2024-01-27T07:03:39.942Z,67.79
2024-01-27T07:04:39.841Z,67.89
2024-01-27T07:05:40.167Z,67.82
2024-01-27T07:06:40.004Z,67.70
2024-01-27T07:07:39.875Z,67.66
2024-01-27T07:08:39.908Z,67.72
2024-01-27T07:09:39.919Z,67.63
2024-01-27T07:10:39.919Z,67.57
2024-01-27T07:11:39.925Z,67.53
2024-01-27T07:12:40.014Z,67.78
2024-01-27T07:13:39.922Z,67.61
2024-01-27T07:14:39.916Z,67.45
2024-01-27T07:15:40.109Z,67.44
2024-01-27T07:16:40.113Z,67.39
2024-01-27T07:17:40.132Z,67.50
2024-01-27T07:18:40.291Z,67.56
2024-01-27T07:19:40.218Z,67.66
2024-01-27T07:20:40.158Z,67.60
2024-01-27T07:21:40.242Z,67.58
2024-01-27T07:22:40.212Z,67.48
2024-01-27T07:23:40.240Z,67.55
2024-01-27T07:24:40.241Z,67.58
2024-01-27T07:25:40.286Z,67.70
2024-01-27T07:26:40.300Z,67.68
2024-01-27T07:27:40.490Z,67.67
2024-01-27T07:28:40.359Z,67.65
2024-01-27T07:29:40.361Z,67.77
2024-01-27T07:30:40.466Z,67.96
2024-01-27T07:31:40.417Z,68.02
2024-01-27T07:32:40.447Z,67.92
2024-01-27T07:33:40.566Z,67.90
2024-01-27T07:34:40.509Z,68.02
2024-01-27T07:35:40.502Z,67.99
2024-01-27T07:36:40.568Z,68.05
2024-01-27T07:37:40.511Z,67.88
2024-01-27T07:38:40.526Z,67.95
2024-01-27T07:39:40.677Z,67.99
2024-01-27T07:40:40.599Z,68.19
2024-01-27T07:41:40.630Z,68.37
2024-01-27T07:42:40.672Z,68.54
2024-01-27T07:43:40.665Z,68.43
2024-01-27T07:44:40.739Z,68.83
2024-01-27T07:45:40.745Z,68.74
2024-01-27T07:46:40.751Z,68.28
2024-01-27T07:47:40.833Z,68.51
2024-01-27T07:48:40.898Z,68.53
2024-01-27T07:49:40.890Z,68.91
2024-01-27T07:50:40.859Z,68.98
2024-01-27T07:51:40.870Z,68.76
2024-01-27T07:52:40.901Z,69.26
2024-01-27T07:53:40.948Z,69.35
2024-01-27T07:54:41.007Z,69.43
2024-01-27T07:55:41.041Z,69.42
2024-01-27T07:56:41.137Z,69.05
2024-01-27T07:57:41.204Z,69.41
2024-01-27T07:58:41.191Z,69.13
2024-01-27T07:59:41.221Z,68.92
2024-01-27T08:00:41.424Z,69.01
2024-01-27T08:01:41.289Z,69.22
2024-01-27T08:02:41.266Z,69.38
2024-01-27T08:03:41.341Z,69.17
2024-01-27T08:04:41.383Z,69.32
2024-01-27T08:05:41.377Z,69.09
2024-01-27T08:06:41.413Z,69.11
2024-01-27T08:07:41.470Z,68.92
2024-01-27T08:08:41.505Z,69.16
2024-01-27T08:09:41.540Z,69.33
2024-01-27T08:10:41.580Z,68.95
2024-01-27T08:11:41.757Z,69.13
2024-01-27T08:12:41.724Z,69.23
2024-01-27T08:13:41.788Z,69.49
2024-01-27T08:14:41.953Z,69.20
2024-01-27T08:15:41.997Z,69.25
2024-01-27T08:16:41.960Z,69.33
2024-01-27T08:17:42.049Z,69.75
2024-01-27T08:18:42.272Z,69.51
2024-01-27T08:19:42.220Z,69.51
2024-01-27T08:20:42.186Z,69.53
2024-01-27T08:21:42.326Z,69.76
2024-01-27T08:22:42.329Z,69.73
2024-01-27T08:23:42.401Z,69.56
2024-01-27T08:24:42.490Z,69.72
2024-01-27T08:25:42.524Z,69.96
2024-01-27T08:26:42.622Z,70.59
2024-01-27T08:27:42.680Z,71.51
2024-01-27T08:28:42.701Z,71.57
2024-01-27T08:29:42.787Z,71.55
2024-01-27T08:30:42.910Z,71.87
2024-01-27T08:31:43.023Z,72.16
2024-01-27T08:32:43.032Z,71.94
2024-01-27T08:33:43.092Z,71.85
2024-01-27T08:34:43.188Z,71.80
2024-01-27T08:35:43.190Z,71.80
2024-01-27T08:36:43.262Z,72.12
2024-01-27T08:37:43.270Z,72.66
2024-01-27T08:38:43.328Z,72.73
2024-01-27T08:39:43.466Z,71.85
2024-01-27T08:40:43.509Z,71.99
2024-01-27T08:41:43.501Z,72.05
2024-01-27T08:42:43.587Z,71.87
2024-01-27T08:43:43.615Z,72.06
2024-01-27T08:44:43.686Z,72.23
2024-01-27T08:45:43.742Z,72.65
2024-01-27T08:46:43.698Z,72.35
2024-01-27T08:47:43.758Z,71.94
2024-01-27T08:48:43.811Z,71.55
2024-01-27T08:49:43.803Z,71.60
2024-01-27T08:50:43.723Z,71.35
2024-01-27T08:51:43.707Z,71.27
2024-01-27T08:52:43.704Z,71.51
2024-01-27T08:53:43.815Z,71.55
2024-01-27T08:54:43.831Z,71.26
2024-01-27T08:55:43.721Z,70.99
2024-01-27T08:56:43.728Z,71.51
2024-01-27T08:57:43.734Z,71.70
2024-01-27T08:58:43.771Z,71.68
2024-01-27T08:59:43.839Z,71.17
2024-01-27T09:00:44.044Z,70.98
2024-01-27T09:01:43.914Z,70.64
2024-01-27T09:02:43.971Z,70.77
2024-01-27T09:03:44.081Z,70.71
2024-01-27T09:04:44.227Z,71.18
2024-01-27T09:05:44.148Z,70.98
2024-01-27T09:06:44.217Z,71.50
2024-01-27T09:07:44.176Z,70.63
2024-01-27T09:08:44.285Z,70.74
2024-01-27T09:09:44.380Z,69.27
2024-01-27T09:10:44.379Z,69.08
2024-01-27T09:11:44.430Z,68.50
2024-01-27T09:12:44.532Z,68.03
2024-01-27T09:13:44.504Z,68.11
2024-01-27T09:14:44.530Z,68.41
2024-01-27T09:15:44.571Z,68.24
2024-01-27T09:16:44.572Z,67.81
2024-01-27T09:17:44.587Z,67.99
2024-01-27T09:18:44.751Z,67.13
2024-01-27T09:19:44.685Z,67.12
2024-01-27T09:20:44.678Z,67.14
2024-01-27T09:21:44.722Z,66.94
2024-01-27T09:22:44.706Z,67.29
2024-01-27T09:23:44.712Z,67.17
2024-01-27T09:24:44.824Z,67.43
2024-01-27T09:25:44.736Z,67.31
2024-01-27T09:26:44.723Z,66.57
2024-01-27T09:27:44.803Z,66.35
2024-01-27T09:28:44.730Z,66.70
2024-01-27T09:29:44.737Z,66.56
2024-01-27T09:30:44.899Z,65.93
2024-01-27T09:31:44.770Z,64.69
2024-01-27T09:32:44.794Z,63.60
2024-01-27T09:33:44.786Z,63.53
2024-01-27T09:34:44.709Z,63.59
2024-01-27T09:35:44.774Z,63.63
2024-01-27T09:36:44.786Z,63.45
2024-01-27T09:37:44.741Z,63.03
2024-01-27T09:38:44.682Z,62.91
2024-01-27T09:39:44.737Z,62.51
2024-01-27T09:40:44.673Z,62.28
2024-01-27T09:41:44.686Z,62.38
2024-01-27T09:42:44.678Z,62.78
2024-01-27T09:43:44.663Z,63.01
2024-01-27T09:44:44.649Z,63.48
2024-01-27T09:45:44.717Z,63.32
2024-01-27T09:46:44.643Z,63.60
2024-01-27T09:47:44.705Z,63.47
2024-01-27T09:48:44.911Z,63.56
2024-01-27T09:49:44.796Z,63.23
2024-01-27T09:50:44.616Z,63.51
2024-01-27T09:51:44.670Z,63.20
2024-01-27T09:52:44.648Z,63.78
2024-01-27T09:53:44.716Z,64.13
2024-01-27T09:54:44.786Z,64.28
2024-01-27T09:55:44.777Z,64.16
2024-01-27T09:56:44.788Z,64.10
2024-01-27T09:57:44.744Z,64.14
2024-01-27T09:58:44.746Z,64.17
2024-01-27T09:59:44.772Z,64.09
2024-01-27T10:00:44.876Z,64.18
2024-01-27T10:01:44.734Z,64.28
2024-01-27T10:02:44.735Z,63.98
2024-01-27T10:03:44.912Z,63.42
2024-01-27T10:04:44.922Z,63.98
2024-01-27T10:05:44.860Z,63.98
2024-01-27T10:06:44.993Z,63.26
2024-01-27T10:07:44.987Z,63.83
2024-01-27T10:08:45.048Z,64.14
2024-01-27T10:09:45.085Z,64.21
2024-01-27T10:10:45.156Z,63.41
2024-01-27T10:11:45.255Z,62.44
2024-01-27T10:12:45.271Z,62.25
2024-01-27T10:13:45.350Z,62.42
2024-01-27T10:14:45.401Z,61.91
2024-01-27T10:15:45.502Z,61.97
2024-01-27T10:16:45.536Z,61.39
2024-01-27T10:17:45.642Z,61.54
2024-01-27T10:18:45.788Z,61.28
2024-01-27T10:19:46.043Z,61.49
2024-01-27T10:20:45.805Z,62.29
2024-01-27T10:21:45.884Z,62.43
2024-01-27T10:22:45.933Z,62.57
2024-01-27T10:23:45.953Z,63.41
2024-01-27T10:24:46.100Z,63.37
2024-01-27T10:25:46.067Z,62.68
2024-01-27T10:26:46.116Z,62.98
2024-01-27T10:27:46.234Z,63.18
2024-01-27T10:28:46.242Z,62.29
2024-01-27T10:29:46.316Z,62.13
2024-01-27T10:30:46.469Z,62.68
2024-01-27T10:31:46.399Z,62.27
2024-01-27T10:32:46.513Z,61.90
2024-01-27T10:33:46.613Z,61.70
2024-01-27T10:34:46.653Z,62.35
2024-01-27T10:35:46.658Z,62.65
2024-01-27T10:36:47.064Z,62.12
2024-01-27T10:37:46.755Z,61.91
2024-01-27T10:38:46.791Z,62.46
2024-01-27T10:39:46.873Z,62.49
2024-01-27T10:40:46.813Z,62.26
2024-01-27T10:41:46.834Z,62.09
2024-01-27T10:42:46.829Z,61.85
2024-01-27T10:43:46.886Z,61.48
2024-01-27T10:44:46.866Z,61.43
2024-01-27T10:45:46.972Z,61.80
2024-01-27T10:46:46.824Z,61.79
2024-01-27T10:47:46.877Z,61.65
2024-01-27T10:48:46.866Z,61.57
2024-01-27T10:49:46.964Z,61.84
2024-01-27T10:50:46.933Z,62.40
2024-01-27T10:51:46.829Z,62.85
2024-01-27T10:52:46.774Z,63.94
2024-01-27T10:53:46.788Z,63.28
2024-01-27T10:54:46.899Z,63.23
2024-01-27T10:55:46.768Z,62.74
2024-01-27T10:56:46.816Z,63.10
2024-01-27T10:57:46.820Z,63.91
2024-01-27T10:58:46.817Z,64.24
2024-01-27T10:59:46.804Z,64.92
2024-01-27T11:00:46.922Z,65.77
2024-01-27T11:01:46.809Z,66.43
2024-01-27T11:02:46.843Z,66.54
2024-01-27T11:03:46.925Z,66.54
2024-01-27T11:04:46.893Z,66.47
2024-01-27T11:05:46.950Z,66.47
2024-01-27T11:06:46.992Z,66.76
2024-01-27T11:07:46.883Z,67.34
2024-01-27T11:08:46.923Z,67.01
2024-01-27T11:09:46.950Z,67.10
2024-01-27T11:10:46.950Z,67.10
2024-01-27T11:11:47.008Z,66.85
2024-01-27T11:12:47.044Z,66.63
2024-01-27T11:13:47.070Z,66.53
2024-01-27T11:14:47.078Z,66.00
2024-01-27T11:15:47.197Z,66.20
2024-01-27T11:16:47.242Z,66.66
2024-01-27T11:17:47.292Z,66.61
2024-01-27T11:18:47.392Z,65.23
2024-01-27T11:19:47.353Z,66.14
2024-01-27T11:20:47.397Z,67.45
2024-01-27T11:21:47.546Z,67.88
2024-01-27T11:22:47.494Z,67.84
2024-01-27T11:23:47.558Z,68.68
2024-01-27T11:24:47.708Z,68.89
2024-01-27T11:25:47.679Z,69.10
2024-01-27T11:26:47.767Z,69.55
2024-01-27T11:27:47.823Z,69.27
2024-01-27T11:28:47.858Z,68.56
2024-01-27T11:29:47.981Z,68.52
2024-01-27T11:30:48.002Z,68.25
2024-01-27T11:31:48.038Z,68.29
2024-01-27T11:32:48.134Z,67.85
2024-01-27T11:33:48.407Z,67.50
2024-01-27T11:34:48.201Z,67.18
2024-01-27T11:35:48.189Z,67.29
2024-01-27T11:36:48.331Z,66.07
2024-01-27T11:37:48.325Z,66.51
2024-01-27T11:38:48.367Z,65.02
2024-01-27T11:39:48.503Z,65.67
2024-01-27T11:40:48.784Z,63.80
2024-01-27T11:41:48.532Z,64.61
2024-01-27T11:42:48.610Z,65.19
2024-01-27T11:43:48.607Z,64.51
2024-01-27T11:44:48.713Z,65.23
2024-01-27T11:45:48.782Z,65.37
2024-01-27T11:46:48.745Z,65.12
2024-01-27T11:47:48.911Z,64.66
2024-01-27T11:48:48.916Z,65.44
2024-01-27T11:49:48.918Z,63.87
2024-01-27T11:50:48.933Z,64.52
2024-01-27T11:51:49.032Z,63.49
2024-01-27T11:52:49.034Z,63.34
2024-01-27T11:53:49.061Z,63.63
2024-01-27T11:54:49.177Z,65.47
2024-01-27T11:55:49.184Z,64.86
2024-01-27T11:56:49.250Z,64.58
2024-01-27T11:57:49.326Z,63.64
2024-01-27T11:58:49.617Z,64.08
2024-01-27T11:59:49.565Z,64.02
2024-01-27T12:00:49.581Z,64.27
2024-01-27T12:01:49.631Z,65.97
2024-01-27T12:02:49.597Z,64.87
2024-01-27T12:03:49.825Z,64.92
2024-01-27T12:04:49.752Z,65.94
2024-01-27T12:05:50.718Z,65.35
2024-01-27T12:06:49.948Z,65.91
2024-01-27T12:07:49.949Z,66.06
2024-01-27T12:08:50.668Z,66.05
2024-01-27T12:09:50.060Z,64.95
2024-01-27T12:10:50.133Z,64.95
2024-01-27T12:11:50.122Z,64.41
2024-01-27T12:12:50.161Z,64.23
2024-01-27T12:13:50.256Z,64.12
2024-01-27T12:14:50.289Z,63.81
2024-01-27T12:15:50.409Z,63.82
2024-01-27T12:16:50.375Z,64.31
2024-01-27T12:17:50.445Z,65.27
2024-01-27T12:18:50.566Z,63.37
2024-01-27T12:19:50.634Z,62.54
2024-01-27T12:20:50.590Z,61.76
2024-01-27T12:21:50.605Z,61.84
2024-01-27T12:22:50.682Z,62.08
2024-01-27T12:23:50.718Z,62.16
2024-01-27T12:24:50.795Z,61.53
2024-01-27T12:25:50.824Z,62.78
2024-01-27T12:26:50.859Z,61.59
2024-01-27T12:27:50.885Z,62.10
2024-01-27T12:28:50.935Z,61.80
2024-01-27T12:29:50.988Z,61.90
2024-01-27T12:30:51.045Z,61.10
2024-01-27T12:31:51.059Z,61.12
2024-01-27T12:32:51.148Z,60.08
2024-01-27T12:33:51.398Z,60.74
2024-01-27T12:34:51.503Z,60.70
2024-01-27T12:35:51.276Z,59.87
2024-01-27T12:36:51.345Z,59.90
2024-01-27T12:37:51.416Z,60.40
2024-01-27T12:38:51.432Z,60.01
2024-01-27T12:39:51.554Z,60.39
2024-01-27T12:40:51.546Z,60.21
2024-01-27T12:41:51.628Z,60.22
2024-01-27T12:42:51.660Z,60.73
2024-01-27T12:43:51.680Z,60.38
2024-01-27T12:44:51.767Z,60.97
2024-01-27T12:45:51.895Z,61.33
2024-01-27T12:46:51.901Z,61.65
2024-01-27T12:47:52.176Z,61.30
2024-01-27T12:48:52.079Z,61.40
2024-01-27T12:49:52.250Z,60.83
2024-01-27T12:50:52.092Z,60.46
2024-01-27T12:51:52.085Z,60.71
2024-01-27T12:52:52.166Z,60.06